sensor_id;sensor_type;location;lat;lon;timestamp;P1;durP1;ratioP1;P2;durP2;ratioP2
7017;SDS011;3549;42.162;24.726;2023-03-01T00:01:49;5.23;;;3.83;;
7017;SDS011;3549;42.162;24.726;2023-03-01T00:04:15;5.73;;;3.73;;
7017;SDS011;3549;42.162;24.726;2023-03-01T00:06:41;5.23;;;3.30;;
7017;SDS011;3549;42.162;24.726;2023-03-01T00:09:11;4.90;;;3.80;;
7017;SDS011;3549;42.162;24.726;2023-03-01T00:11:37;8.47;;;5.37;;
7017;SDS011;3549;42.162;24.726;2023-03-01T00:14:02;7.97;;;5.37;;
7017;SDS011;3549;42.162;24.726;2023-03-01T00:16:38;6.17;;;4.00;;
7017;SDS011;3549;42.162;24.726;2023-03-01T00:19:06;6.67;;;4.67;;
7017;SDS011;3549;42.162;24.726;2023-03-01T00:21:33;7.07;;;4.80;;
7017;SDS011;3549;42.162;24.726;2023-03-01T00:24:00;7.50;;;4.70;;
7017;SDS011;3549;42.162;24.726;2023-03-01T00:26:26;8.50;;;5.00;;
7017;SDS011;3549;42.162;24.726;2023-03-01T00:28:52;7.37;;;4.43;;
7017;SDS011;3549;42.162;24.726;2023-03-01T00:31:24;9.67;;;6.50;;
7017;SDS011;3549;42.162;24.726;2023-03-01T00:33:54;10.03;;;5.70;;
7017;SDS011;3549;42.162;24.726;2023-03-01T00:36:22;7.60;;;5.10;;
7017;SDS011;3549;42.162;24.726;2023-03-01T00:38:49;7.60;;;5.03;;
7017;SDS011;3549;42.162;24.726;2023-03-01T00:41:15;6.57;;;4.00;;
7017;SDS011;3549;42.162;24.726;2023-03-01T00:43:42;8.03;;;5.37;;
7017;SDS011;3549;42.162;24.726;2023-03-01T00:46:12;9.33;;;5.47;;
7017;SDS011;3549;42.162;24.726;2023-03-01T00:48:39;7.70;;;4.80;;
7017;SDS011;3549;42.162;24.726;2023-03-01T00:51:15;7.27;;;4.90;;
7017;SDS011;3549;42.162;24.726;2023-03-01T00:53:42;7.67;;;5.00;;
7017;SDS011;3549;42.162;24.726;2023-03-01T00:56:08;6.97;;;4.73;;
7017;SDS011;3549;42.162;24.726;2023-03-01T00:58:35;9.17;;;5.57;;
7017;SDS011;3549;42.162;24.726;2023-03-01T01:01:01;8.80;;;5.30;;
7017;SDS011;3549;42.162;24.726;2023-03-01T01:06:18;9.70;;;6.63;;
7017;SDS011;3549;42.162;24.726;2023-03-01T01:08:54;10.07;;;5.57;;
7017;SDS011;3549;42.162;24.726;2023-03-01T01:11:22;9.80;;;6.23;;
7017;SDS011;3549;42.162;24.726;2023-03-01T01:13:49;14.93;;;8.37;;
7017;SDS011;3549;42.162;24.726;2023-03-01T01:16:15;6.07;;;4.27;;
7017;SDS011;3549;42.162;24.726;2023-03-01T01:18:42;6.43;;;4.57;;
7017;SDS011;3549;42.162;24.726;2023-03-01T01:21:12;5.83;;;4.20;;
7017;SDS011;3549;42.162;24.726;2023-03-01T01:23:39;5.67;;;3.90;;
7017;SDS011;3549;42.162;24.726;2023-03-01T01:26:06;6.40;;;3.90;;
7017;SDS011;3549;42.162;24.726;2023-03-01T01:28:32;5.93;;;4.10;;
7017;SDS011;3549;42.162;24.726;2023-03-01T01:30:58;5.60;;;4.00;;
7017;SDS011;3549;42.162;24.726;2023-03-01T01:33:24;5.63;;;3.87;;
7017;SDS011;3549;42.162;24.726;2023-03-01T01:35:49;6.07;;;4.03;;
7017;SDS011;3549;42.162;24.726;2023-03-01T01:38:15;5.23;;;3.53;;
7017;SDS011;3549;42.162;24.726;2023-03-01T01:40:44;5.30;;;3.67;;
7017;SDS011;3549;42.162;24.726;2023-03-01T01:43:21;6.73;;;4.03;;
7017;SDS011;3549;42.162;24.726;2023-03-01T01:45:53;5.43;;;3.67;;
7017;SDS011;3549;42.162;24.726;2023-03-01T01:48:22;5.37;;;3.83;;
7017;SDS011;3549;42.162;24.726;2023-03-01T01:51:05;6.07;;;3.50;;
7017;SDS011;3549;42.162;24.726;2023-03-01T01:53:32;4.77;;;3.33;;
7017;SDS011;3549;42.162;24.726;2023-03-01T01:55:58;5.17;;;3.37;;
7017;SDS011;3549;42.162;24.726;2023-03-01T01:58:26;5.27;;;3.77;;
7017;SDS011;3549;42.162;24.726;2023-03-01T02:00:54;5.20;;;3.33;;
7017;SDS011;3549;42.162;24.726;2023-03-01T02:03:24;5.57;;;3.67;;
7017;SDS011;3549;42.162;24.726;2023-03-01T02:05:58;4.73;;;3.53;;
7017;SDS011;3549;42.162;24.726;2023-03-01T02:08:29;6.53;;;3.93;;
7017;SDS011;3549;42.162;24.726;2023-03-01T02:10:57;5.80;;;3.60;;
7017;SDS011;3549;42.162;24.726;2023-03-01T02:13:24;5.77;;;3.80;;
7017;SDS011;3549;42.162;24.726;2023-03-01T02:15:51;6.30;;;3.90;;
7017;SDS011;3549;42.162;24.726;2023-03-01T02:18:17;6.13;;;4.20;;
7017;SDS011;3549;42.162;24.726;2023-03-01T02:23:21;5.97;;;4.23;;
7017;SDS011;3549;42.162;24.726;2023-03-01T02:25:56;6.27;;;4.20;;
7017;SDS011;3549;42.162;24.726;2023-03-01T02:28:37;8.90;;;4.60;;
7017;SDS011;3549;42.162;24.726;2023-03-01T02:31:05;8.07;;;5.03;;
7017;SDS011;3549;42.162;24.726;2023-03-01T02:33:51;7.60;;;4.63;;
7017;SDS011;3549;42.162;24.726;2023-03-01T02:36:25;6.83;;;4.37;;
7017;SDS011;3549;42.162;24.726;2023-03-01T02:38:56;7.67;;;4.63;;
7017;SDS011;3549;42.162;24.726;2023-03-01T02:41:23;6.97;;;4.53;;
7017;SDS011;3549;42.162;24.726;2023-03-01T02:43:51;8.63;;;4.40;;
7017;SDS011;3549;42.162;24.726;2023-03-01T02:46:21;6.83;;;4.20;;
7017;SDS011;3549;42.162;24.726;2023-03-01T02:48:50;7.20;;;4.43;;
7017;SDS011;3549;42.162;24.726;2023-03-01T02:56:44;7.30;;;4.63;;
7017;SDS011;3549;42.162;24.726;2023-03-01T02:59:13;8.27;;;4.70;;
7017;SDS011;3549;42.162;24.726;2023-03-01T03:01:40;8.77;;;4.90;;
7017;SDS011;3549;42.162;24.726;2023-03-01T03:04:08;7.60;;;4.47;;
7017;SDS011;3549;42.162;24.726;2023-03-01T03:06:36;8.33;;;5.00;;
7017;SDS011;3549;42.162;24.726;2023-03-01T03:09:02;7.13;;;4.80;;
7017;SDS011;3549;42.162;24.726;2023-03-01T03:11:28;7.83;;;4.70;;
7017;SDS011;3549;42.162;24.726;2023-03-01T03:13:55;7.77;;;4.10;;
7017;SDS011;3549;42.162;24.726;2023-03-01T03:16:21;8.40;;;4.83;;
7017;SDS011;3549;42.162;24.726;2023-03-01T03:18:47;8.20;;;4.80;;
7017;SDS011;3549;42.162;24.726;2023-03-01T03:21:14;10.37;;;6.37;;
7017;SDS011;3549;42.162;24.726;2023-03-01T03:23:41;8.87;;;5.00;;
7017;SDS011;3549;42.162;24.726;2023-03-01T03:26:07;8.17;;;4.60;;
7017;SDS011;3549;42.162;24.726;2023-03-01T03:28:32;8.67;;;4.90;;
7017;SDS011;3549;42.162;24.726;2023-03-01T03:30:59;9.17;;;5.47;;
7017;SDS011;3549;42.162;24.726;2023-03-01T03:33:31;9.57;;;5.50;;
7017;SDS011;3549;42.162;24.726;2023-03-01T03:35:57;9.40;;;5.77;;
7017;SDS011;3549;42.162;24.726;2023-03-01T03:38:23;9.20;;;5.40;;
7017;SDS011;3549;42.162;24.726;2023-03-01T03:40:52;9.43;;;5.67;;
7017;SDS011;3549;42.162;24.726;2023-03-01T03:43:27;10.80;;;6.10;;
7017;SDS011;3549;42.162;24.726;2023-03-01T03:45:53;9.87;;;5.97;;
7017;SDS011;3549;42.162;24.726;2023-03-01T03:48:37;11.47;;;6.40;;
7017;SDS011;3549;42.162;24.726;2023-03-01T03:51:09;12.20;;;6.53;;
7017;SDS011;3549;42.162;24.726;2023-03-01T03:53:39;10.43;;;6.20;;
7017;SDS011;3549;42.162;24.726;2023-03-01T03:56:05;11.40;;;6.30;;
7017;SDS011;3549;42.162;24.726;2023-03-01T03:58:31;10.43;;;6.30;;
7017;SDS011;3549;42.162;24.726;2023-03-01T04:00:57;9.90;;;5.63;;
7017;SDS011;3549;42.162;24.726;2023-03-01T04:03:23;11.03;;;5.73;;
7017;SDS011;3549;42.162;24.726;2023-03-01T04:05:50;9.37;;;5.60;;
7017;SDS011;3549;42.162;24.726;2023-03-01T04:08:17;8.83;;;5.40;;
7017;SDS011;3549;42.162;24.726;2023-03-01T04:10:45;7.83;;;5.00;;
7017;SDS011;3549;42.162;24.726;2023-03-01T04:13:16;8.17;;;5.10;;
7017;SDS011;3549;42.162;24.726;2023-03-01T04:15:50;9.77;;;5.63;;
7017;SDS011;3549;42.162;24.726;2023-03-01T04:18:18;9.17;;;5.40;;
7017;SDS011;3549;42.162;24.726;2023-03-01T04:20:45;10.63;;;5.40;;
7017;SDS011;3549;42.162;24.726;2023-03-01T04:23:15;8.90;;;5.53;;
7017;SDS011;3549;42.162;24.726;2023-03-01T04:28:27;10.43;;;5.93;;
7017;SDS011;3549;42.162;24.726;2023-03-01T04:30:53;9.77;;;5.73;;
7017;SDS011;3549;42.162;24.726;2023-03-01T04:33:21;14.73;;;7.60;;
7017;SDS011;3549;42.162;24.726;2023-03-01T04:35:47;10.70;;;6.23;;
7017;SDS011;3549;42.162;24.726;2023-03-01T04:38:16;10.87;;;5.97;;
7017;SDS011;3549;42.162;24.726;2023-03-01T04:40:46;11.70;;;6.67;;
7017;SDS011;3549;42.162;24.726;2023-03-01T04:43:11;13.17;;;6.70;;
7017;SDS011;3549;42.162;24.726;2023-03-01T04:45:40;12.47;;;7.47;;
7017;SDS011;3549;42.162;24.726;2023-03-01T04:48:06;12.70;;;6.70;;
7017;SDS011;3549;42.162;24.726;2023-03-01T04:50:31;12.57;;;6.93;;
7017;SDS011;3549;42.162;24.726;2023-03-01T04:52:57;14.43;;;8.43;;
7017;SDS011;3549;42.162;24.726;2023-03-01T04:55:23;22.73;;;13.60;;
7017;SDS011;3549;42.162;24.726;2023-03-01T04:57:50;13.70;;;8.37;;
7017;SDS011;3549;42.162;24.726;2023-03-01T05:00:16;15.27;;;9.13;;
7017;SDS011;3549;42.162;24.726;2023-03-01T05:02:52;18.80;;;11.53;;
7017;SDS011;3549;42.162;24.726;2023-03-01T05:05:29;13.50;;;7.23;;
7017;SDS011;3549;42.162;24.726;2023-03-01T05:08:00;12.07;;;7.53;;
7017;SDS011;3549;42.162;24.726;2023-03-01T05:10:30;16.50;;;9.80;;
7017;SDS011;3549;42.162;24.726;2023-03-01T05:12:59;15.07;;;8.37;;
7017;SDS011;3549;42.162;24.726;2023-03-01T05:15:26;14.13;;;8.43;;
7017;SDS011;3549;42.162;24.726;2023-03-01T05:17:53;16.50;;;8.63;;
7017;SDS011;3549;42.162;24.726;2023-03-01T05:20:20;17.20;;;9.70;;
7017;SDS011;3549;42.162;24.726;2023-03-01T05:22:50;17.17;;;9.73;;
7017;SDS011;3549;42.162;24.726;2023-03-01T05:25:16;19.67;;;9.33;;
7017;SDS011;3549;42.162;24.726;2023-03-01T05:27:42;17.90;;;8.93;;
7017;SDS011;3549;42.162;24.726;2023-03-01T05:30:08;17.60;;;9.20;;
7017;SDS011;3549;42.162;24.726;2023-03-01T05:32:40;16.40;;;9.80;;
7017;SDS011;3549;42.162;24.726;2023-03-01T05:35:14;17.40;;;9.57;;
7017;SDS011;3549;42.162;24.726;2023-03-01T05:37:42;14.47;;;8.90;;
7017;SDS011;3549;42.162;24.726;2023-03-01T05:40:10;18.97;;;9.50;;
7017;SDS011;3549;42.162;24.726;2023-03-01T05:42:53;18.53;;;8.80;;
7017;SDS011;3549;42.162;24.726;2023-03-01T05:45:21;16.30;;;9.00;;
7017;SDS011;3549;42.162;24.726;2023-03-01T05:47:48;27.93;;;13.53;;
7017;SDS011;3549;42.162;24.726;2023-03-01T05:50:15;32.53;;;16.90;;
7017;SDS011;3549;42.162;24.726;2023-03-01T05:52:49;21.70;;;11.90;;
7017;SDS011;3549;42.162;24.726;2023-03-01T05:55:17;20.13;;;11.37;;
7017;SDS011;3549;42.162;24.726;2023-03-01T05:57:45;16.80;;;9.70;;
7017;SDS011;3549;42.162;24.726;2023-03-01T06:00:11;19.73;;;11.33;;
7017;SDS011;3549;42.162;24.726;2023-03-01T06:02:38;17.17;;;10.23;;
7017;SDS011;3549;42.162;24.726;2023-03-01T06:05:05;18.13;;;9.97;;
7017;SDS011;3549;42.162;24.726;2023-03-01T06:07:33;13.53;;;8.60;;
7017;SDS011;3549;42.162;24.726;2023-03-01T06:09:58;15.20;;;8.80;;
7017;SDS011;3549;42.162;24.726;2023-03-01T06:12:23;17.37;;;11.07;;
7017;SDS011;3549;42.162;24.726;2023-03-01T06:14:49;14.83;;;9.30;;
7017;SDS011;3549;42.162;24.726;2023-03-01T06:17:14;18.63;;;10.97;;
7017;SDS011;3549;42.162;24.726;2023-03-01T06:19:40;19.77;;;12.13;;
7017;SDS011;3549;42.162;24.726;2023-03-01T06:22:05;18.50;;;11.13;;
7017;SDS011;3549;42.162;24.726;2023-03-01T06:24:31;16.97;;;9.30;;
7017;SDS011;3549;42.162;24.726;2023-03-01T06:26:58;14.87;;;9.30;;
7017;SDS011;3549;42.162;24.726;2023-03-01T06:29:23;19.20;;;11.80;;
7017;SDS011;3549;42.162;24.726;2023-03-01T06:31:49;32.03;;;17.40;;
7017;SDS011;3549;42.162;24.726;2023-03-01T06:34:14;21.10;;;11.23;;
7017;SDS011;3549;42.162;24.726;2023-03-01T06:36:40;19.00;;;11.50;;
7017;SDS011;3549;42.162;24.726;2023-03-01T06:39:06;16.20;;;8.40;;
7017;SDS011;3549;42.162;24.726;2023-03-01T06:41:32;16.23;;;9.13;;
7017;SDS011;3549;42.162;24.726;2023-03-01T06:43:58;14.87;;;8.47;;
7017;SDS011;3549;42.162;24.726;2023-03-01T06:46:24;12.50;;;7.50;;
7017;SDS011;3549;42.162;24.726;2023-03-01T06:48:49;14.17;;;7.63;;
7017;SDS011;3549;42.162;24.726;2023-03-01T06:51:15;12.63;;;7.80;;
7017;SDS011;3549;42.162;24.726;2023-03-01T06:53:40;14.97;;;8.30;;
7017;SDS011;3549;42.162;24.726;2023-03-01T06:56:06;12.27;;;7.70;;
7017;SDS011;3549;42.162;24.726;2023-03-01T06:58:31;15.00;;;10.23;;
7017;SDS011;3549;42.162;24.726;2023-03-01T07:00:56;14.60;;;8.90;;
7017;SDS011;3549;42.162;24.726;2023-03-01T07:03:23;11.77;;;7.67;;
7017;SDS011;3549;42.162;24.726;2023-03-01T07:05:49;10.97;;;6.60;;
7017;SDS011;3549;42.162;24.726;2023-03-01T07:08:16;8.93;;;5.53;;
7017;SDS011;3549;42.162;24.726;2023-03-01T07:10:42;9.47;;;5.80;;
7017;SDS011;3549;42.162;24.726;2023-03-01T07:13:07;10.70;;;6.20;;
7017;SDS011;3549;42.162;24.726;2023-03-01T07:15:33;8.83;;;6.03;;
7017;SDS011;3549;42.162;24.726;2023-03-01T07:17:58;11.20;;;5.73;;
7017;SDS011;3549;42.162;24.726;2023-03-01T07:20:24;13.77;;;5.90;;
7017;SDS011;3549;42.162;24.726;2023-03-01T07:22:50;9.07;;;6.10;;
7017;SDS011;3549;42.162;24.726;2023-03-01T07:25:17;11.33;;;6.67;;
7017;SDS011;3549;42.162;24.726;2023-03-01T07:27:42;11.10;;;5.97;;
7017;SDS011;3549;42.162;24.726;2023-03-01T07:30:08;11.20;;;6.10;;
7017;SDS011;3549;42.162;24.726;2023-03-01T07:32:34;8.73;;;5.40;;
7017;SDS011;3549;42.162;24.726;2023-03-01T07:35:00;11.13;;;6.57;;
7017;SDS011;3549;42.162;24.726;2023-03-01T07:37:25;27.33;;;9.43;;
7017;SDS011;3549;42.162;24.726;2023-03-01T07:39:51;36.13;;;17.53;;
7017;SDS011;3549;42.162;24.726;2023-03-01T07:42:16;15.23;;;9.93;;
7017;SDS011;3549;42.162;24.726;2023-03-01T07:44:41;14.03;;;9.03;;
7017;SDS011;3549;42.162;24.726;2023-03-01T07:47:07;10.07;;;5.77;;
7017;SDS011;3549;42.162;24.726;2023-03-01T07:49:32;8.37;;;5.50;;
7017;SDS011;3549;42.162;24.726;2023-03-01T07:51:57;7.30;;;5.20;;
7017;SDS011;3549;42.162;24.726;2023-03-01T07:54:23;6.67;;;4.80;;
7017;SDS011;3549;42.162;24.726;2023-03-01T07:56:49;9.93;;;6.70;;
7017;SDS011;3549;42.162;24.726;2023-03-01T07:59:14;18.03;;;9.40;;
7017;SDS011;3549;42.162;24.726;2023-03-01T08:01:40;15.67;;;10.93;;
7017;SDS011;3549;42.162;24.726;2023-03-01T08:04:06;18.90;;;11.10;;
7017;SDS011;3549;42.162;24.726;2023-03-01T08:06:33;34.43;;;13.50;;
7017;SDS011;3549;42.162;24.726;2023-03-01T08:09:00;20.47;;;9.33;;
7017;SDS011;3549;42.162;24.726;2023-03-01T08:11:25;34.27;;;14.07;;
7017;SDS011;3549;42.162;24.726;2023-03-01T08:13:53;22.40;;;10.67;;
7017;SDS011;3549;42.162;24.726;2023-03-01T08:16:18;13.50;;;6.20;;
7017;SDS011;3549;42.162;24.726;2023-03-01T08:18:44;15.50;;;8.87;;
7017;SDS011;3549;42.162;24.726;2023-03-01T08:21:14;11.67;;;6.57;;
7017;SDS011;3549;42.162;24.726;2023-03-01T08:23:41;10.87;;;6.23;;
7017;SDS011;3549;42.162;24.726;2023-03-01T08:26:12;10.93;;;6.43;;
7017;SDS011;3549;42.162;24.726;2023-03-01T08:28:39;6.30;;;4.17;;
7017;SDS011;3549;42.162;24.726;2023-03-01T08:31:24;7.97;;;5.20;;
7017;SDS011;3549;42.162;24.726;2023-03-01T08:33:53;9.00;;;5.10;;
7017;SDS011;3549;42.162;24.726;2023-03-01T08:36:24;9.17;;;5.50;;
7017;SDS011;3549;42.162;24.726;2023-03-01T08:38:52;9.90;;;6.43;;
7017;SDS011;3549;42.162;24.726;2023-03-01T08:41:18;7.57;;;4.50;;
7017;SDS011;3549;42.162;24.726;2023-03-01T08:43:44;8.03;;;5.20;;
7017;SDS011;3549;42.162;24.726;2023-03-01T08:46:10;9.03;;;6.23;;
7017;SDS011;3549;42.162;24.726;2023-03-01T08:48:36;7.13;;;5.00;;
7017;SDS011;3549;42.162;24.726;2023-03-01T08:51:18;9.63;;;6.03;;
7017;SDS011;3549;42.162;24.726;2023-03-01T08:53:45;10.67;;;7.13;;
7017;SDS011;3549;42.162;24.726;2023-03-01T08:56:17;5.10;;;3.10;;
7017;SDS011;3549;42.162;24.726;2023-03-01T08:58:44;8.17;;;5.07;;
7017;SDS011;3549;42.162;24.726;2023-03-01T09:04:28;4.60;;;2.77;;
7017;SDS011;3549;42.162;24.726;2023-03-01T09:06:54;8.53;;;4.80;;
7017;SDS011;3549;42.162;24.726;2023-03-01T09:09:19;11.83;;;7.17;;
7017;SDS011;3549;42.162;24.726;2023-03-01T09:11:45;5.97;;;3.80;;
7017;SDS011;3549;42.162;24.726;2023-03-01T09:14:12;7.80;;;6.10;;
7017;SDS011;3549;42.162;24.726;2023-03-01T09:16:38;6.40;;;4.20;;
7017;SDS011;3549;42.162;24.726;2023-03-01T09:19:04;3.83;;;3.17;;
7017;SDS011;3549;42.162;24.726;2023-03-01T09:21:30;3.90;;;2.90;;
7017;SDS011;3549;42.162;24.726;2023-03-01T09:23:56;8.80;;;5.87;;
7017;SDS011;3549;42.162;24.726;2023-03-01T09:26:22;12.37;;;8.73;;
7017;SDS011;3549;42.162;24.726;2023-03-01T09:28:50;6.07;;;4.57;;
7017;SDS011;3549;42.162;24.726;2023-03-01T09:31:19;7.83;;;4.37;;
7017;SDS011;3549;42.162;24.726;2023-03-01T09:33:46;15.07;;;6.90;;
7017;SDS011;3549;42.162;24.726;2023-03-01T09:36:17;11.70;;;6.57;;
7017;SDS011;3549;42.162;24.726;2023-03-01T09:38:44;6.00;;;4.00;;
7017;SDS011;3549;42.162;24.726;2023-03-01T09:41:11;6.13;;;3.77;;
7017;SDS011;3549;42.162;24.726;2023-03-01T09:43:53;10.30;;;5.77;;
7017;SDS011;3549;42.162;24.726;2023-03-01T09:46:25;7.77;;;4.37;;
7017;SDS011;3549;42.162;24.726;2023-03-01T09:48:54;4.40;;;3.40;;
7017;SDS011;3549;42.162;24.726;2023-03-01T09:51:23;5.13;;;4.13;;
7017;SDS011;3549;42.162;24.726;2023-03-01T09:53:52;5.50;;;3.13;;
7017;SDS011;3549;42.162;24.726;2023-03-01T09:56:20;6.70;;;3.60;;
7017;SDS011;3549;42.162;24.726;2023-03-01T09:58:54;8.13;;;4.60;;
7017;SDS011;3549;42.162;24.726;2023-03-01T10:01:35;5.73;;;3.27;;
7017;SDS011;3549;42.162;24.726;2023-03-01T10:06:34;8.03;;;4.67;;
7017;SDS011;3549;42.162;24.726;2023-03-01T10:09:00;9.07;;;6.53;;
7017;SDS011;3549;42.162;24.726;2023-03-01T10:11:32;7.87;;;4.63;;
7017;SDS011;3549;42.162;24.726;2023-03-01T10:16:48;18.67;;;11.67;;
7017;SDS011;3549;42.162;24.726;2023-03-01T10:19:30;10.80;;;8.03;;
7017;SDS011;3549;42.162;24.726;2023-03-01T10:22:02;18.30;;;14.97;;
7017;SDS011;3549;42.162;24.726;2023-03-01T10:24:49;10.47;;;5.63;;
7017;SDS011;3549;42.162;24.726;2023-03-01T10:33:06;5.83;;;3.63;;
7017;SDS011;3549;42.162;24.726;2023-03-01T10:35:42;4.40;;;3.10;;
7017;SDS011;3549;42.162;24.726;2023-03-01T10:38:11;9.47;;;4.47;;
7017;SDS011;3549;42.162;24.726;2023-03-01T10:40:56;10.30;;;5.13;;
7017;SDS011;3549;42.162;24.726;2023-03-01T10:51:43;6.23;;;4.23;;
7017;SDS011;3549;42.162;24.726;2023-03-01T10:54:18;8.00;;;4.90;;
7017;SDS011;3549;42.162;24.726;2023-03-01T10:56:50;11.47;;;5.47;;
7017;SDS011;3549;42.162;24.726;2023-03-01T10:59:22;11.13;;;8.57;;
7017;SDS011;3549;42.162;24.726;2023-03-01T11:02:14;7.43;;;4.63;;
7017;SDS011;3549;42.162;24.726;2023-03-01T11:07:47;11.20;;;5.57;;
7017;SDS011;3549;42.162;24.726;2023-03-01T11:10:16;11.80;;;5.83;;
7017;SDS011;3549;42.162;24.726;2023-03-01T11:12:43;11.07;;;5.20;;
7017;SDS011;3549;42.162;24.726;2023-03-01T11:15:15;9.63;;;4.53;;
7017;SDS011;3549;42.162;24.726;2023-03-01T11:17:50;7.60;;;4.33;;
7017;SDS011;3549;42.162;24.726;2023-03-01T11:20:19;11.03;;;5.67;;
7017;SDS011;3549;42.162;24.726;2023-03-01T11:25:24;6.63;;;4.07;;
7017;SDS011;3549;42.162;24.726;2023-03-01T11:27:53;10.10;;;5.57;;
7017;SDS011;3549;42.162;24.726;2023-03-01T11:32:47;7.80;;;4.43;;
7017;SDS011;3549;42.162;24.726;2023-03-01T11:35:36;12.07;;;5.50;;
7017;SDS011;3549;42.162;24.726;2023-03-01T11:40:44;6.93;;;4.10;;
7017;SDS011;3549;42.162;24.726;2023-03-01T11:46:34;15.57;;;6.90;;
7017;SDS011;3549;42.162;24.726;2023-03-01T11:52:07;14.17;;;7.00;;
7017;SDS011;3549;42.162;24.726;2023-03-01T12:05:41;7.87;;;4.30;;
7017;SDS011;3549;42.162;24.726;2023-03-01T12:10:57;7.77;;;4.30;;
7017;SDS011;3549;42.162;24.726;2023-03-01T12:13:47;7.10;;;4.00;;
7017;SDS011;3549;42.162;24.726;2023-03-01T12:19:48;9.43;;;4.63;;
7017;SDS011;3549;42.162;24.726;2023-03-01T12:39:06;16.50;;;10.87;;
7017;SDS011;3549;42.162;24.726;2023-03-01T12:41:57;9.80;;;4.40;;
7017;SDS011;3549;42.162;24.726;2023-03-01T12:50:18;14.47;;;7.20;;
7017;SDS011;3549;42.162;24.726;2023-03-01T12:52:56;13.40;;;9.00;;
7017;SDS011;3549;42.162;24.726;2023-03-01T12:55:36;10.93;;;5.90;;
7017;SDS011;3549;42.162;24.726;2023-03-01T13:06:19;7.53;;;5.50;;
7017;SDS011;3549;42.162;24.726;2023-03-01T13:11:51;9.10;;;4.90;;
7017;SDS011;3549;42.162;24.726;2023-03-01T13:16:48;9.50;;;5.57;;
7017;SDS011;3549;42.162;24.726;2023-03-01T13:22:00;18.00;;;8.10;;
7017;SDS011;3549;42.162;24.726;2023-03-01T13:25:01;13.27;;;7.03;;
7017;SDS011;3549;42.162;24.726;2023-03-01T13:27:36;14.17;;;6.43;;
7017;SDS011;3549;42.162;24.726;2023-03-01T13:30:02;10.77;;;7.43;;
7017;SDS011;3549;42.162;24.726;2023-03-01T13:32:35;10.73;;;6.30;;
7017;SDS011;3549;42.162;24.726;2023-03-01T13:37:39;9.50;;;5.23;;
7017;SDS011;3549;42.162;24.726;2023-03-01T13:42:44;8.63;;;5.67;;
7017;SDS011;3549;42.162;24.726;2023-03-01T13:45:20;11.63;;;6.77;;
7017;SDS011;3549;42.162;24.726;2023-03-01T13:47:52;13.17;;;6.13;;
7017;SDS011;3549;42.162;24.726;2023-03-01T13:50:24;13.40;;;6.67;;
7017;SDS011;3549;42.162;24.726;2023-03-01T13:52:57;11.60;;;6.93;;
7017;SDS011;3549;42.162;24.726;2023-03-01T14:00:57;11.30;;;6.47;;
7017;SDS011;3549;42.162;24.726;2023-03-01T14:03:23;9.93;;;5.70;;
7017;SDS011;3549;42.162;24.726;2023-03-01T14:06:02;11.33;;;7.10;;
7017;SDS011;3549;42.162;24.726;2023-03-01T14:08:29;8.93;;;6.40;;
7017;SDS011;3549;42.162;24.726;2023-03-01T14:21:49;10.60;;;7.10;;
7017;SDS011;3549;42.162;24.726;2023-03-01T14:24:47;11.43;;;6.50;;
7017;SDS011;3549;42.162;24.726;2023-03-01T14:27:17;10.73;;;6.67;;
7017;SDS011;3549;42.162;24.726;2023-03-01T14:29:44;15.17;;;7.13;;
7017;SDS011;3549;42.162;24.726;2023-03-01T14:32:21;14.33;;;8.70;;
7017;SDS011;3549;42.162;24.726;2023-03-01T14:34:50;12.93;;;7.97;;
7017;SDS011;3549;42.162;24.726;2023-03-01T14:39:51;11.23;;;7.20;;
7017;SDS011;3549;42.162;24.726;2023-03-01T14:42:17;12.13;;;7.80;;
7017;SDS011;3549;42.162;24.726;2023-03-01T14:44:47;11.30;;;7.20;;
7017;SDS011;3549;42.162;24.726;2023-03-01T14:47:25;11.37;;;7.13;;
7017;SDS011;3549;42.162;24.726;2023-03-01T14:49:57;14.03;;;7.77;;
7017;SDS011;3549;42.162;24.726;2023-03-01T14:52:35;14.77;;;9.37;;
7017;SDS011;3549;42.162;24.726;2023-03-01T14:55:04;26.70;;;16.90;;
7017;SDS011;3549;42.162;24.726;2023-03-01T14:57:32;49.27;;;26.13;;
7017;SDS011;3549;42.162;24.726;2023-03-01T14:59:58;23.47;;;12.47;;
7017;SDS011;3549;42.162;24.726;2023-03-01T15:02:29;16.97;;;10.93;;
7017;SDS011;3549;42.162;24.726;2023-03-01T15:04:56;18.93;;;10.30;;
7017;SDS011;3549;42.162;24.726;2023-03-01T15:07:33;21.93;;;11.60;;
7017;SDS011;3549;42.162;24.726;2023-03-01T15:10:00;34.53;;;21.70;;
7017;SDS011;3549;42.162;24.726;2023-03-01T15:14:52;17.50;;;11.43;;
7017;SDS011;3549;42.162;24.726;2023-03-01T15:17:31;29.20;;;18.17;;
7017;SDS011;3549;42.162;24.726;2023-03-01T15:20:04;18.63;;;12.27;;
7017;SDS011;3549;42.162;24.726;2023-03-01T15:22:31;18.13;;;12.00;;
7017;SDS011;3549;42.162;24.726;2023-03-01T15:24:57;22.13;;;13.33;;
7017;SDS011;3549;42.162;24.726;2023-03-01T15:27:23;23.83;;;14.07;;
7017;SDS011;3549;42.162;24.726;2023-03-01T15:30:00;30.07;;;15.77;;
7017;SDS011;3549;42.162;24.726;2023-03-01T15:32:35;20.47;;;12.80;;
7017;SDS011;3549;42.162;24.726;2023-03-01T15:38:00;14.37;;;6.50;;
7017;SDS011;3549;42.162;24.726;2023-03-01T15:40:27;15.33;;;9.73;;
7017;SDS011;3549;42.162;24.726;2023-03-01T15:43:06;16.83;;;7.77;;
7017;SDS011;3549;42.162;24.726;2023-03-01T15:45:32;16.80;;;7.10;;
7017;SDS011;3549;42.162;24.726;2023-03-01T15:48:04;14.87;;;5.67;;
7017;SDS011;3549;42.162;24.726;2023-03-01T15:50:40;11.33;;;6.57;;
7017;SDS011;3549;42.162;24.726;2023-03-01T15:53:10;13.03;;;7.50;;
7017;SDS011;3549;42.162;24.726;2023-03-01T15:55:39;13.90;;;8.00;;
7017;SDS011;3549;42.162;24.726;2023-03-01T16:00:41;10.17;;;5.20;;
7017;SDS011;3549;42.162;24.726;2023-03-01T16:03:08;11.07;;;6.60;;
7017;SDS011;3549;42.162;24.726;2023-03-01T16:05:36;13.40;;;6.40;;
7017;SDS011;3549;42.162;24.726;2023-03-01T16:08:03;14.27;;;7.37;;
7017;SDS011;3549;42.162;24.726;2023-03-01T16:10:30;12.90;;;6.23;;
7017;SDS011;3549;42.162;24.726;2023-03-01T16:12:56;15.20;;;7.37;;
7017;SDS011;3549;42.162;24.726;2023-03-01T16:15:26;15.87;;;8.40;;
7017;SDS011;3549;42.162;24.726;2023-03-01T16:17:52;15.77;;;7.83;;
7017;SDS011;3549;42.162;24.726;2023-03-01T16:20:18;16.80;;;8.93;;
7017;SDS011;3549;42.162;24.726;2023-03-01T16:22:44;16.67;;;10.13;;
7017;SDS011;3549;42.162;24.726;2023-03-01T16:25:11;20.80;;;10.50;;
7017;SDS011;3549;42.162;24.726;2023-03-01T16:27:38;19.87;;;11.30;;
7017;SDS011;3549;42.162;24.726;2023-03-01T16:30:06;21.17;;;12.17;;
7017;SDS011;3549;42.162;24.726;2023-03-01T16:32:33;21.67;;;12.17;;
7017;SDS011;3549;42.162;24.726;2023-03-01T16:34:58;17.70;;;10.63;;
7017;SDS011;3549;42.162;24.726;2023-03-01T16:37:23;17.60;;;10.77;;
7017;SDS011;3549;42.162;24.726;2023-03-01T16:39:49;20.73;;;12.20;;
7017;SDS011;3549;42.162;24.726;2023-03-01T16:42:17;19.87;;;11.43;;
7017;SDS011;3549;42.162;24.726;2023-03-01T16:44:42;23.20;;;12.27;;
7017;SDS011;3549;42.162;24.726;2023-03-01T16:47:08;19.77;;;11.13;;
7017;SDS011;3549;42.162;24.726;2023-03-01T16:49:33;22.50;;;12.93;;
7017;SDS011;3549;42.162;24.726;2023-03-01T16:51:59;22.10;;;11.57;;
7017;SDS011;3549;42.162;24.726;2023-03-01T16:54:24;22.40;;;12.73;;
7017;SDS011;3549;42.162;24.726;2023-03-01T16:56:50;22.13;;;13.40;;
7017;SDS011;3549;42.162;24.726;2023-03-01T16:59:15;25.57;;;14.00;;
7017;SDS011;3549;42.162;24.726;2023-03-01T17:01:41;25.97;;;13.50;;
7017;SDS011;3549;42.162;24.726;2023-03-01T17:04:09;28.23;;;15.80;;
7017;SDS011;3549;42.162;24.726;2023-03-01T17:06:36;28.60;;;14.63;;
7017;SDS011;3549;42.162;24.726;2023-03-01T17:09:02;59.93;;;31.97;;
7017;SDS011;3549;42.162;24.726;2023-03-01T17:11:28;50.03;;;27.40;;
7017;SDS011;3549;42.162;24.726;2023-03-01T17:13:53;40.83;;;23.13;;
7017;SDS011;3549;42.162;24.726;2023-03-01T17:16:19;50.60;;;28.80;;
7017;SDS011;3549;42.162;24.726;2023-03-01T17:18:45;41.00;;;22.77;;
7017;SDS011;3549;42.162;24.726;2023-03-01T17:21:11;33.30;;;20.83;;
7017;SDS011;3549;42.162;24.726;2023-03-01T17:23:39;37.23;;;20.60;;